createdAt,value
2023-02-28T00:01:26.929Z,22.45
2023-02-28T00:03:53.651Z,22.45
2023-02-28T00:06:21.033Z,21.00
2023-02-28T00:08:47.648Z,21.42
2023-02-28T00:11:15.737Z,21.73
2023-02-28T00:13:47.240Z,22.58
2023-02-28T00:16:19.916Z,20.58
2023-02-28T00:18:48.442Z,20.60
2023-02-28T00:21:16.306Z,21.25
2023-02-28T00:23:42.969Z,21.85
2023-02-28T00:26:09.559Z,21.60
2023-02-28T00:28:36.447Z,21.27
2023-02-28T00:31:03.072Z,20.73
2023-02-28T00:33:30.113Z,22.15
2023-02-28T00:36:09.206Z,21.73
2023-02-28T00:38:36.536Z,21.73
2023-02-28T00:41:06.126Z,22.05
2023-02-28T00:43:38.439Z,21.80
2023-02-28T00:46:05.622Z,20.77
2023-02-28T00:48:32.639Z,21.05
2023-02-28T00:50:59.357Z,21.83
2023-02-28T00:53:26.335Z,22.00
2023-02-28T00:55:53.326Z,21.85
2023-02-28T00:58:19.987Z,22.73
2023-02-28T01:00:50.115Z,22.15
2023-02-28T01:03:20.927Z,21.25
2023-02-28T01:05:48.317Z,21.65
2023-02-28T01:08:15.413Z,21.30
2023-02-28T01:10:42.639Z,21.90
2023-02-28T01:13:09.547Z,21.63
2023-02-28T01:15:36.137Z,21.20
2023-02-28T01:18:02.740Z,22.13
2023-02-28T01:20:29.282Z,22.60
2023-02-28T01:22:55.876Z,22.13
2023-02-28T01:25:22.617Z,21.77
2023-02-28T01:27:49.269Z,22.73
2023-02-28T01:30:16.005Z,21.50
2023-02-28T01:32:42.557Z,21.52
2023-02-28T01:35:09.434Z,21.25
2023-02-28T01:37:36.012Z,21.75
2023-02-28T01:40:03.397Z,21.85
2023-02-28T01:42:29.985Z,21.40
2023-02-28T01:45:32.703Z,20.98
2023-02-28T01:48:03.204Z,21.63
2023-02-28T01:50:34.662Z,19.80
2023-02-28T01:53:05.357Z,21.50
2023-02-28T01:55:33.508Z,21.58
2023-02-28T01:58:03.663Z,21.85
2023-02-28T02:00:31.316Z,20.52
2023-02-28T02:03:02.378Z,21.48
2023-02-28T02:05:35.295Z,22.27
2023-02-28T02:08:08.924Z,21.15
2023-02-28T02:10:57.092Z,22.33
2023-02-28T02:13:38.782Z,21.30
2023-02-28T02:16:08.322Z,21.58
2023-02-28T02:18:50.976Z,21.45
2023-02-28T02:21:38.816Z,21.02
2023-02-28T02:24:39.548Z,23.23
2023-02-28T02:27:19.467Z,22.38
2023-02-28T02:30:09.723Z,21.70
2023-02-28T02:32:48.498Z,21.17
2023-02-28T02:35:25.226Z,21.77
2023-02-28T02:38:00.963Z,21.65
2023-02-28T02:40:44.624Z,22.00
2023-02-28T02:43:40.074Z,22.73
2023-02-28T02:48:58.434Z,22.60
2023-02-28T02:51:25.986Z,22.75
2023-02-28T02:54:06.850Z,23.33
2023-02-28T02:56:35.619Z,23.05
2023-02-28T02:59:05.350Z,21.83
2023-02-28T03:01:35.680Z,22.90
2023-02-28T03:04:08.782Z,22.23
2023-02-28T03:06:36.385Z,21.60
2023-02-28T03:09:04.509Z,22.52
2023-02-28T03:11:32.495Z,22.10
2023-02-28T03:14:20.301Z,21.58
2023-02-28T03:16:55.662Z,24.30
2023-02-28T03:19:48.470Z,23.15
2023-02-28T03:22:55.842Z,23.35
2023-02-28T03:25:25.258Z,22.40
2023-02-28T03:28:14.819Z,22.00
2023-02-28T03:30:59.828Z,23.45
2023-02-28T03:33:35.936Z,21.38
2023-02-28T03:36:14.248Z,23.05
2023-02-28T03:38:46.985Z,22.60
2023-02-28T03:41:26.796Z,22.98
2023-02-28T03:44:25.366Z,22.40
2023-02-28T03:47:01.204Z,22.48
2023-02-28T03:50:00.215Z,21.50
2023-02-28T03:52:32.216Z,23.05
2023-02-28T03:55:08.038Z,23.98
2023-02-28T03:57:45.227Z,22.13
2023-02-28T04:00:22.120Z,23.17
2023-02-28T04:02:53.625Z,21.55
2023-02-28T04:05:23.970Z,22.05
2023-02-28T04:07:50.708Z,23.20
2023-02-28T04:10:17.784Z,23.38
2023-02-28T04:12:44.359Z,23.90
2023-02-28T04:15:12.280Z,22.55
2023-02-28T04:17:39.287Z,21.95
2023-02-28T04:20:10.511Z,21.77
2023-02-28T04:22:38.260Z,22.75
2023-02-28T04:25:06.693Z,22.52
2023-02-28T04:27:33.534Z,21.52
2023-02-28T04:30:00.295Z,22.45
2023-02-28T04:32:27.120Z,22.85
2023-02-28T04:34:53.871Z,22.00
2023-02-28T04:37:20.737Z,22.75
2023-02-28T04:39:47.349Z,21.95
2023-02-28T04:42:14.673Z,22.33
2023-02-28T04:44:41.276Z,22.67
2023-02-28T04:47:08.077Z,22.02
2023-02-28T04:49:34.679Z,22.75
2023-02-28T04:52:01.245Z,22.25
2023-02-28T04:54:29.330Z,21.40
2023-02-28T04:56:55.948Z,22.23
2023-02-28T04:59:22.544Z,22.08
2023-02-28T05:01:50.104Z,22.63
2023-02-28T05:04:18.150Z,21.73
2023-02-28T05:06:45.165Z,23.83
2023-02-28T05:09:14.590Z,21.17
2023-02-28T05:11:41.898Z,24.15
2023-02-28T05:14:12.501Z,22.42
2023-02-28T05:16:39.304Z,23.50
2023-02-28T05:19:06.129Z,22.35
2023-02-28T05:21:50.350Z,21.85
2023-02-28T05:24:23.505Z,22.07
2023-02-28T05:26:52.963Z,22.48
2023-02-28T05:29:20.325Z,21.30
2023-02-28T05:31:47.465Z,22.23
2023-02-28T05:34:16.530Z,21.83
2023-02-28T05:36:43.378Z,22.90
2023-02-28T05:39:14.212Z,22.33
2023-02-28T05:41:44.620Z,21.90
2023-02-28T05:44:12.019Z,21.58
2023-02-28T05:46:39.464Z,23.92
2023-02-28T05:49:06.425Z,21.63
2023-02-28T05:51:33.094Z,22.63
2023-02-28T05:54:01.550Z,21.50
2023-02-28T05:56:28.830Z,22.27
2023-02-28T05:58:55.425Z,22.38
2023-02-28T06:01:27.705Z,22.85
2023-02-28T06:03:54.399Z,22.85
2023-02-28T06:06:21.034Z,21.55
2023-02-28T06:08:47.872Z,21.88
2023-02-28T06:11:14.566Z,22.58
2023-02-28T06:13:41.705Z,21.55
2023-02-28T06:16:10.217Z,21.60
2023-02-28T06:18:37.017Z,21.88
2023-02-28T06:21:04.153Z,22.55
2023-02-28T06:23:30.941Z,22.35
2023-02-28T06:26:00.584Z,21.88
2023-02-28T06:28:27.178Z,22.98
2023-02-28T06:30:53.771Z,22.30
2023-02-28T06:33:20.384Z,22.33
2023-02-28T06:35:53.912Z,23.25
2023-02-28T06:38:20.490Z,20.83
2023-02-28T06:40:54.859Z,20.88
2023-02-28T06:43:21.837Z,22.10
2023-02-28T06:45:48.448Z,22.05
2023-02-28T06:48:15.011Z,20.80
2023-02-28T06:50:41.686Z,21.60
2023-02-28T06:53:08.310Z,22.73
2023-02-28T06:55:34.913Z,21.88
2023-02-28T06:58:01.457Z,21.73
2023-02-28T07:00:28.002Z,20.77
2023-02-28T07:02:56.060Z,21.00
2023-02-28T07:05:22.743Z,21.38
2023-02-28T07:07:49.637Z,21.92
2023-02-28T07:10:20.152Z,20.98
2023-02-28T07:12:46.952Z,21.10
2023-02-28T07:15:13.618Z,20.95
2023-02-28T07:17:40.197Z,21.60
2023-02-28T07:20:07.392Z,20.60
2023-02-28T07:22:34.009Z,21.15
2023-02-28T07:25:00.593Z,20.58
2023-02-28T07:27:27.326Z,22.10
2023-02-28T07:29:55.671Z,20.60
2023-02-28T07:32:22.388Z,20.67
2023-02-28T07:34:49.511Z,21.98
2023-02-28T07:37:16.206Z,19.77
2023-02-28T07:39:43.465Z,20.88
2023-02-28T07:42:12.773Z,21.00
2023-02-28T07:44:41.683Z,20.48
2023-02-28T07:47:09.663Z,23.08
2023-02-28T07:49:39.992Z,20.05
2023-02-28T07:52:08.054Z,20.17
2023-02-28T07:54:35.152Z,19.98
2023-02-28T07:57:01.732Z,20.70
2023-02-28T07:59:29.998Z,19.02
2023-02-28T08:01:58.928Z,19.05
2023-02-28T08:04:25.680Z,19.77
2023-02-28T08:06:54.966Z,20.48
2023-02-28T08:09:21.632Z,19.70
2023-02-28T08:11:48.284Z,19.58
2023-02-28T08:14:14.881Z,19.67
2023-02-28T08:16:41.477Z,18.23
2023-02-28T08:19:08.023Z,19.00
2023-02-28T08:21:34.602Z,19.58
2023-02-28T08:24:01.527Z,18.73
2023-02-28T08:26:28.063Z,19.30
2023-02-28T08:28:56.184Z,19.65
2023-02-28T08:31:24.091Z,19.38
2023-02-28T08:33:52.875Z,19.52
2023-02-28T08:36:20.438Z,19.27
2023-02-28T08:38:47.106Z,19.20
2023-02-28T08:41:14.178Z,19.45
2023-02-28T08:43:41.628Z,18.67
2023-02-28T08:46:08.956Z,19.05
2023-02-28T08:48:39.029Z,19.00
2023-02-28T08:51:10.049Z,18.30
2023-02-28T08:53:41.242Z,19.77
2023-02-28T08:56:14.060Z,19.80
2023-02-28T08:58:41.518Z,21.00
2023-02-28T09:01:10.652Z,20.40
2023-02-28T09:03:37.296Z,19.92
2023-02-28T09:06:04.379Z,19.63
2023-02-28T09:08:32.294Z,19.23
2023-02-28T09:11:02.389Z,20.20
2023-02-28T09:13:31.034Z,19.85
2023-02-28T09:16:03.641Z,20.88
2023-02-28T09:18:30.613Z,21.75
2023-02-28T09:20:58.708Z,20.88
2023-02-28T09:23:25.828Z,20.17
2023-02-28T09:25:54.916Z,21.50
2023-02-28T09:28:22.631Z,21.20
2023-02-28T09:30:52.590Z,21.63
2023-02-28T09:33:22.920Z,22.10
2023-02-28T09:35:50.633Z,21.98
2023-02-28T09:38:18.838Z,22.00
2023-02-28T09:40:56.539Z,22.48
2023-02-28T09:43:26.632Z,21.02
2023-02-28T09:46:03.520Z,22.02
2023-02-28T09:48:38.021Z,21.98
2023-02-28T09:51:24.436Z,21.88
2023-02-28T09:53:56.751Z,22.67
2023-02-28T09:56:43.424Z,21.48
2023-02-28T09:59:31.480Z,22.75
2023-02-28T10:02:11.576Z,22.52
2023-02-28T10:04:38.161Z,21.67
2023-02-28T10:07:33.112Z,22.38
2023-02-28T10:10:06.067Z,23.00
2023-02-28T10:12:34.345Z,22.02
2023-02-28T10:15:05.480Z,22.67
2023-02-28T10:20:32.330Z,23.30
2023-02-28T10:23:24.886Z,21.17
2023-02-28T10:25:57.956Z,21.73
2023-02-28T10:28:26.326Z,21.45
2023-02-28T10:30:54.852Z,20.63
2023-02-28T10:33:42.728Z,21.75
2023-02-28T10:36:15.179Z,21.48
2023-02-28T10:38:42.134Z,21.58
2023-02-28T10:41:16.251Z,22.02
2023-02-28T10:43:45.948Z,22.17
2023-02-28T10:46:24.081Z,21.58
2023-02-28T10:49:06.885Z,21.30
2023-02-28T10:51:41.552Z,21.65
2023-02-28T10:56:43.358Z,22.25
2023-02-28T10:59:10.060Z,20.98
2023-02-28T11:01:39.818Z,22.00
2023-02-28T11:04:37.658Z,21.58
2023-02-28T11:07:27.539Z,21.10
2023-02-28T11:09:56.750Z,21.02
2023-02-28T11:12:50.845Z,21.77
2023-02-28T11:15:27.141Z,21.15
2023-02-28T11:20:51.995Z,20.98
2023-02-28T11:23:21.114Z,21.42
2023-02-28T11:25:52.625Z,20.38
2023-02-28T11:28:33.583Z,20.25
2023-02-28T11:31:15.002Z,21.27
2023-02-28T11:33:45.869Z,20.23
2023-02-28T11:36:15.166Z,21.42
2023-02-28T11:38:43.157Z,20.77
2023-02-28T11:41:28.710Z,20.90
2023-02-28T11:44:33.759Z,22.02
2023-02-28T11:47:09.130Z,21.43
2023-02-28T11:49:51.364Z,22.30
2023-02-28T11:52:26.966Z,20.63
2023-02-28T11:55:20.427Z,21.63
2023-02-28T11:57:52.813Z,20.63
2023-02-28T12:00:37.445Z,21.30
2023-02-28T12:03:29.252Z,21.27
2023-02-28T12:06:28.727Z,21.73
2023-02-28T12:09:10.608Z,20.30
2023-02-28T12:11:49.288Z,21.27
2023-02-28T12:14:48.262Z,21.48
2023-02-28T12:17:44.378Z,21.23
2023-02-28T12:20:55.944Z,21.80
2023-02-28T12:23:44.398Z,21.17
2023-02-28T12:26:25.539Z,20.88
2023-02-28T12:28:59.184Z,21.30
2023-02-28T12:31:32.024Z,21.17
2023-02-28T12:34:04.836Z,20.95
2023-02-28T12:36:31.417Z,20.40
2023-02-28T12:39:04.112Z,20.98
2023-02-28T12:41:40.135Z,21.27
2023-02-28T12:44:15.469Z,20.92
2023-02-28T12:46:52.016Z,21.67
2023-02-28T12:49:55.642Z,22.08
2023-02-28T12:52:44.009Z,21.35
2023-02-28T12:55:26.200Z,22.25
2023-02-28T12:58:21.784Z,23.00
2023-02-28T13:01:03.556Z,21.60
2023-02-28T13:03:45.022Z,20.10
2023-02-28T13:06:21.218Z,22.35
2023-02-28T13:09:09.791Z,20.73
2023-02-28T13:11:43.345Z,21.55
2023-02-28T13:14:34.137Z,21.50
2023-02-28T13:17:12.708Z,22.58
2023-02-28T13:20:01.854Z,21.48
2023-02-28T13:22:50.244Z,22.42
2023-02-28T13:25:23.081Z,21.85
2023-02-28T13:27:57.665Z,21.67
2023-02-28T13:30:52.748Z,20.27
2023-02-28T13:33:24.717Z,22.58
2023-02-28T13:36:09.705Z,21.00
2023-02-28T13:38:39.834Z,20.98
2023-02-28T13:41:37.142Z,19.67
2023-02-28T13:44:15.582Z,20.33
2023-02-28T13:46:48.306Z,20.40
2023-02-28T13:49:26.880Z,22.08
2023-02-28T13:52:03.443Z,20.60
2023-02-28T13:55:09.598Z,19.85
2023-02-28T13:58:13.957Z,20.63
2023-02-28T14:01:22.223Z,20.73
2023-02-28T14:04:16.140Z,20.48
2023-02-28T14:06:52.963Z,20.38
2023-02-28T14:09:32.311Z,20.10
2023-02-28T14:12:37.480Z,20.02
2023-02-28T14:15:06.495Z,21.83
2023-02-28T14:17:33.708Z,20.10
2023-02-28T14:20:00.862Z,20.95
2023-02-28T14:22:30.400Z,19.98
2023-02-28T14:25:19.688Z,20.75
2023-02-28T14:28:13.316Z,20.23
2023-02-28T14:30:52.088Z,19.85
2023-02-28T14:33:30.660Z,19.92
2023-02-28T14:36:02.947Z,21.15
2023-02-28T14:38:36.152Z,19.85
2023-02-28T14:41:07.937Z,20.83
2023-02-28T14:43:34.515Z,21.08
2023-02-28T14:46:04.293Z,20.02
2023-02-28T14:48:31.396Z,21.48
2023-02-28T14:51:00.219Z,19.85
2023-02-28T14:53:30.471Z,19.77
2023-02-28T14:55:57.766Z,20.80
2023-02-28T14:58:35.279Z,21.02
2023-02-28T15:01:04.388Z,19.23
2023-02-28T15:03:39.350Z,19.35
2023-02-28T15:06:13.289Z,19.67
2023-02-28T15:08:39.845Z,20.65
2023-02-28T15:11:13.648Z,20.20
2023-02-28T15:13:46.202Z,21.93
2023-02-28T15:16:23.129Z,20.73
2023-02-28T15:18:53.644Z,20.45
2023-02-28T15:21:27.523Z,20.52
2023-02-28T15:24:24.799Z,20.60
2023-02-28T15:26:56.196Z,22.02
2023-02-28T15:29:25.721Z,20.42
2023-02-28T15:32:02.985Z,20.73
2023-02-28T15:34:42.174Z,20.80
2023-02-28T15:37:42.265Z,21.23
2023-02-28T15:40:17.256Z,19.55
2023-02-28T15:42:58.667Z,22.05
2023-02-28T15:45:57.846Z,21.73
2023-02-28T15:48:36.970Z,20.83
2023-02-28T15:51:06.624Z,20.73
2023-02-28T15:53:55.594Z,21.38
2023-02-28T15:56:29.958Z,20.80
2023-02-28T15:59:01.623Z,20.95
2023-02-28T16:01:31.064Z,20.95
2023-02-28T16:04:04.274Z,21.40
2023-02-28T16:06:37.497Z,21.23
2023-02-28T16:09:06.064Z,21.67
2023-02-28T16:11:36.153Z,21.52
2023-02-28T16:14:04.259Z,21.73
2023-02-28T16:16:32.496Z,22.98
2023-02-28T16:18:59.157Z,22.70
2023-02-28T16:21:26.799Z,22.88
2023-02-28T16:23:53.408Z,22.35
2023-02-28T16:26:24.042Z,23.20
2023-02-28T16:28:52.037Z,23.25
2023-02-28T16:31:19.064Z,21.95
2023-02-28T16:33:46.670Z,24.60
2023-02-28T16:36:21.985Z,23.17
2023-02-28T16:38:48.925Z,25.85
2023-02-28T16:41:21.875Z,23.10
2023-02-28T16:43:51.022Z,22.67
2023-02-28T16:46:18.608Z,23.20
2023-02-28T16:48:46.328Z,22.17
2023-02-28T16:51:14.768Z,23.40
2023-02-28T16:53:41.428Z,23.77
2023-02-28T16:56:16.790Z,22.88
2023-02-28T16:58:43.429Z,23.13
2023-02-28T17:01:10.103Z,23.45
2023-02-28T17:03:37.834Z,23.67
2023-02-28T17:06:05.392Z,23.20
2023-02-28T17:08:33.193Z,22.98
2023-02-28T17:11:00.339Z,22.92
2023-02-28T17:13:26.983Z,22.05
2023-02-28T17:15:53.649Z,23.48
2023-02-28T17:18:22.114Z,24.02
2023-02-28T17:20:49.415Z,23.17
2023-02-28T17:23:16.956Z,22.30
2023-02-28T17:25:56.322Z,23.10
2023-02-28T17:28:24.495Z,22.92
2023-02-28T17:30:51.123Z,23.10
2023-02-28T17:33:17.803Z,22.95
2023-02-28T17:35:44.401Z,24.02
2023-02-28T17:38:18.019Z,23.02
2023-02-28T17:40:45.335Z,23.48
2023-02-28T17:43:11.999Z,23.80
2023-02-28T17:45:38.692Z,24.27
2023-02-28T17:48:05.926Z,23.73
2023-02-28T17:50:32.992Z,23.98
2023-02-28T17:52:59.650Z,23.52
2023-02-28T17:55:26.286Z,24.70
2023-02-28T17:57:52.967Z,24.30
2023-02-28T18:00:20.077Z,23.92
2023-02-28T18:02:46.744Z,24.17
2023-02-28T18:05:13.508Z,24.23
2023-02-28T18:07:40.841Z,24.42
2023-02-28T18:10:14.265Z,23.27
2023-02-28T18:12:40.850Z,24.35
2023-02-28T18:15:07.753Z,24.02
2023-02-28T18:17:34.396Z,23.70
2023-02-28T18:20:00.916Z,23.92
2023-02-28T18:22:27.505Z,23.63
2023-02-28T18:24:54.026Z,23.38
2023-02-28T18:27:20.679Z,24.08
2023-02-28T18:29:47.306Z,23.80
2023-02-28T18:32:13.956Z,24.92
2023-02-28T18:34:40.657Z,24.80
2023-02-28T18:37:07.406Z,24.15
2023-02-28T18:39:33.986Z,23.13
2023-02-28T18:42:00.564Z,24.08
2023-02-28T18:44:27.191Z,24.90
2023-02-28T18:46:53.832Z,24.00
2023-02-28T18:49:20.743Z,23.95
2023-02-28T18:51:47.482Z,24.85
2023-02-28T18:54:15.807Z,25.42
2023-02-28T18:56:42.384Z,24.85
2023-02-28T18:59:09.043Z,24.40
2023-02-28T19:01:36.406Z,25.17
2023-02-28T19:04:03.762Z,24.73
2023-02-28T19:06:32.875Z,25.63
2023-02-28T19:09:01.837Z,25.58
2023-02-28T19:11:28.739Z,27.35
2023-02-28T19:13:56.500Z,28.60
2023-02-28T19:16:23.106Z,28.25
2023-02-28T19:18:50.248Z,28.88
2023-02-28T19:21:19.276Z,27.33
2023-02-28T19:23:45.932Z,26.75
2023-02-28T19:26:15.748Z,27.00
2023-02-28T19:28:42.388Z,27.45
2023-02-28T19:31:14.274Z,25.80
2023-02-28T19:33:41.640Z,27.05
2023-02-28T19:36:12.058Z,25.58
2023-02-28T19:38:40.066Z,26.58
2023-02-28T19:41:11.712Z,28.10
2023-02-28T19:43:38.815Z,25.77
2023-02-28T19:46:07.270Z,26.02
2023-02-28T19:48:33.837Z,26.00
2023-02-28T19:51:09.428Z,26.40
2023-02-28T19:53:37.438Z,25.60
2023-02-28T19:56:04.727Z,27.88
2023-02-28T19:58:32.037Z,26.23
2023-02-28T20:01:01.259Z,26.30
2023-02-28T20:03:27.881Z,26.02
2023-02-28T20:06:03.802Z,27.13
2023-02-28T20:08:31.019Z,26.52
2023-02-28T20:11:12.434Z,27.17
2023-02-28T20:13:39.159Z,27.85
2023-02-28T20:16:09.625Z,27.27
2023-02-28T20:18:37.904Z,28.27
2023-02-28T20:21:05.084Z,26.52
2023-02-28T20:23:31.771Z,27.50
2023-02-28T20:26:02.494Z,27.35
2023-02-28T20:28:29.128Z,27.25
2023-02-28T20:30:55.908Z,26.83
2023-02-28T20:33:22.721Z,26.75
2023-02-28T20:35:52.636Z,27.30
2023-02-28T20:38:20.303Z,26.50
2023-02-28T20:40:46.865Z,26.63
2023-02-28T20:43:13.569Z,27.23
2023-02-28T20:45:40.305Z,27.85
2023-02-28T20:48:06.856Z,26.90
2023-02-28T20:50:33.382Z,28.23
2023-02-28T20:52:59.981Z,29.40
2023-02-28T20:55:26.536Z,26.42
2023-02-28T20:57:54.181Z,26.98
2023-02-28T21:00:22.415Z,26.75
2023-02-28T21:02:49.056Z,25.35
2023-02-28T21:05:15.745Z,27.52
2023-02-28T21:07:42.294Z,26.40
2023-02-28T21:10:09.999Z,26.73
2023-02-28T21:12:36.576Z,27.30
2023-02-28T21:15:03.759Z,27.20
2023-02-28T21:17:30.421Z,27.27
2023-02-28T21:19:57.077Z,27.73
2023-02-28T21:22:23.603Z,28.23
2023-02-28T21:24:50.148Z,27.83
2023-02-28T21:27:16.759Z,27.23
2023-02-28T21:29:43.337Z,26.65
2023-02-28T21:32:10.062Z,27.17
2023-02-28T21:34:36.720Z,27.33
2023-02-28T21:37:03.859Z,28.10
2023-02-28T21:39:30.751Z,26.85
2023-02-28T21:42:03.504Z,26.90
2023-02-28T21:44:31.331Z,29.17
2023-02-28T21:47:01.054Z,27.83
2023-02-28T21:49:28.516Z,28.10
2023-02-28T21:51:55.154Z,28.83
2023-02-28T21:54:21.746Z,29.35
2023-02-28T21:56:50.766Z,28.10
2023-02-28T21:59:18.106Z,28.27
2023-02-28T22:01:45.519Z,28.67
2023-02-28T22:04:21.137Z,27.45
2023-02-28T22:06:53.320Z,28.25
2023-02-28T22:09:20.630Z,26.90
2023-02-28T22:11:47.599Z,28.67
2023-02-28T22:14:14.158Z,27.70
2023-02-28T22:16:51.245Z,27.27
2023-02-28T22:19:19.904Z,27.30
2023-02-28T22:21:47.438Z,28.17
2023-02-28T22:24:15.528Z,27.05
2023-02-28T22:26:42.131Z,28.33
2023-02-28T22:29:08.732Z,27.83
2023-02-28T22:31:36.839Z,28.02
2023-02-28T22:34:09.528Z,27.85
2023-02-28T22:36:36.855Z,28.40
2023-02-28T22:39:05.308Z,28.42
2023-02-28T22:41:32.503Z,28.35
2023-02-28T22:44:01.713Z,28.92
2023-02-28T22:46:31.143Z,28.05
2023-02-28T22:49:01.650Z,29.63
2023-02-28T22:51:29.050Z,29.70
2023-02-28T22:53:56.922Z,28.67
2023-02-28T22:56:26.692Z,28.20
2023-02-28T22:58:55.539Z,28.77
2023-02-28T23:01:23.997Z,28.08
2023-02-28T23:03:51.377Z,29.08
2023-02-28T23:06:22.923Z,29.73
2023-02-28T23:08:50.862Z,27.98
2023-02-28T23:11:23.695Z,29.23
2023-02-28T23:13:59.800Z,28.67
2023-02-28T23:16:37.208Z,29.60
2023-02-28T23:19:06.897Z,28.15
2023-02-28T23:21:34.568Z,27.67
2023-02-28T23:24:03.198Z,29.55
2023-02-28T23:26:31.850Z,28.17
2023-02-28T23:28:59.535Z,29.27
2023-02-28T23:31:26.299Z,29.65
2023-02-28T23:33:52.926Z,29.27
2023-02-28T23:36:19.721Z,27.75
2023-02-28T23:38:49.283Z,28.60
2023-02-28T23:41:17.260Z,28.05
2023-02-28T23:43:44.196Z,28.55
2023-02-28T23:46:12.015Z,28.40
2023-02-28T23:48:39.204Z,27.92
2023-02-28T23:51:12.021Z,28.15
2023-02-28T23:53:41.132Z,28.05
2023-02-28T23:56:09.775Z,28.60
2023-02-28T23:58:36.842Z,29.17
